Time;durP1;ratioP1;P1;durP2;ratioP2;P2;SDS_P1;SDS_P2;PMS_P1;PMS_P2;Temp;Humidity;BMP_temperature;BMP_pressure;BME280_temperature;BME280_humidity;BME280_pressure;Samples;Min_cycle;Max_cycle;Signal;HPM_P1;HPM_P2
2023/10/26 00:01:03;;;;;;;4.25;2.17;;;;;;;8.98;100.00;91323.22;6309971;22;20037;-80
2023/10/26 00:03:29;;;;;;;8.68;2.50;;;;;;;8.95;100.00;91323.81;6308560;22;20011;-80
2023/10/26 00:05:55;;;;;;;8.82;2.40;;;;;;;8.93;100.00;91326.72;6308090;22;20008;-81
2023/10/26 00:08:21;;;;;;;9.30;2.55;;;;;;;8.92;100.00;91324.44;6309449;22;20452;-80
2023/10/26 00:10:46;;;;;;;9.50;2.50;;;;;;;8.93;100.00;91320.75;6280845;22;20022;-79
2023/10/26 00:13:12;;;;;;;3.35;1.90;;;;;;;8.91;100.00;91322.88;6308787;22;20053;-81
2023/10/26 00:15:38;;;;;;;4.13;2.22;;;;;;;8.89;100.00;91304.94;6307898;22;20057;-81
2023/10/26 00:18:04;;;;;;;5.80;2.20;;;;;;;8.86;100.00;91304.78;6308253;22;20007;-80
2023/10/26 00:20:30;;;;;;;5.00;2.33;;;;;;;8.87;100.00;91314.91;6279825;22;20010;-81
2023/10/26 00:22:56;;;;;;;3.70;2.08;;;;;;;8.85;100.00;91313.66;6307796;22;20015;-81
2023/10/26 00:25:21;;;;;;;5.70;2.25;;;;;;;8.77;100.00;91307.34;6308183;22;20330;-79
2023/10/26 00:27:47;;;;;;;7.32;2.60;;;;;;;8.70;100.00;91292.13;6300134;22;20011;-80
2023/10/26 00:30:13;;;;;;;5.22;2.40;;;;;;;8.71;100.00;91316.38;6251766;22;20068;-82
2023/10/26 00:32:40;;;;;;;6.28;2.30;;;;;;;8.67;100.00;91303.19;6278244;22;20044;-81
2023/10/26 00:35:06;;;;;;;4.93;2.10;;;;;;;8.58;100.00;91281.53;6252721;22;20022;-80
2023/10/26 00:37:32;;;;;;;10.52;2.97;;;;;;;8.55;100.00;91282.13;6251504;22;20000;-81
2023/10/26 00:39:58;;;;;;;8.43;2.90;;;;;;;8.52;100.00;91278.28;6277044;22;20045;-82
2023/10/26 00:42:24;;;;;;;9.50;2.30;;;;;;;8.47;100.00;91295.91;6304331;22;20084;-82
2023/10/26 00:44:53;;;;;;;5.38;2.28;;;;;;;8.45;100.00;91301.41;6277457;22;20011;-81
2023/10/26 00:47:19;;;;;;;7.80;2.40;;;;;;;8.39;100.00;91307.81;6276322;22;20003;-83
2023/10/26 00:49:45;;;;;;;6.07;2.42;;;;;;;8.41;100.00;91299.72;6227274;22;20126;-82
2023/10/26 00:52:11;;;;;;;8.07;3.00;;;;;;;8.39;100.00;91288.78;6304893;22;20023;-80
2023/10/26 00:54:41;;;;;;;8.43;2.60;;;;;;;8.38;100.00;91295.84;6251636;22;20018;-82
2023/10/26 00:57:09;;;;;;;6.65;2.50;;;;;;;8.36;100.00;91297.22;6277591;22;20075;-83
2023/10/26 00:59:35;;;;;;;6.55;2.50;;;;;;;8.30;100.00;91289.50;6304687;22;20003;-82
2023/10/26 01:02:03;;;;;;;5.65;2.70;;;;;;;8.31;100.00;91290.31;6305257;22;20375;-82
2023/10/26 01:04:28;;;;;;;5.72;2.00;;;;;;;8.26;100.00;91283.38;6276534;22;20489;-79
2023/10/26 01:06:54;;;;;;;5.20;2.40;;;;;;;8.20;100.00;91278.59;6251554;22;20030;-83
2023/10/26 01:09:21;;;;;;;4.70;2.20;;;;;;;8.25;100.00;91307.13;6304628;22;20000;-81
2023/10/26 01:11:47;;;;;;;4.47;2.40;;;;;;;8.25;100.00;91294.09;6303982;22;20081;-80
2023/10/26 01:14:14;;;;;;;5.25;2.20;;;;;;;8.24;100.00;91311.59;6277990;22;20018;-82
2023/10/26 01:16:39;;;;;;;8.68;2.30;;;;;;;8.23;100.00;91319.69;6275334;22;20372;-79
2023/10/26 01:19:08;;;;;;;5.97;2.17;;;;;;;8.26;100.00;91321.69;6303956;22;20023;-82
2023/10/26 01:21:51;;;;;;;3.50;1.90;;;;;;;8.27;100.00;91305.00;6250839;22;20015;-81
2023/10/26 01:24:17;;;;;;;7.38;2.20;;;;;;;8.30;100.00;91291.34;6276199;22;20011;-80
2023/10/26 01:26:43;;;;;;;3.70;2.00;;;;;;;8.32;100.00;91286.63;6250532;22;20066;-82
2023/10/26 01:29:09;;;;;;;8.15;2.72;;;;;;;8.31;100.00;91274.66;6303557;22;20019;-82
2023/10/26 01:31:34;;;;;;;4.78;2.33;;;;;;;8.30;100.00;91279.09;6251217;22;20038;-81
2023/10/26 01:34:00;;;;;;;4.97;2.33;;;;;;;8.30;100.00;91294.72;6253078;22;20003;-81
2023/10/26 01:36:26;;;;;;;4.70;2.17;;;;;;;8.32;100.00;91310.84;6276486;22;20528;-82
2023/10/26 01:38:54;;;;;;;6.05;2.10;;;;;;;8.34;100.00;91303.50;6304463;22;20049;-83
2023/10/26 01:41:20;;;;;;;3.30;1.92;;;;;;;8.37;100.00;91299.50;6274878;22;20011;-82
2023/10/26 01:43:46;;;;;;;3.90;2.20;;;;;;;8.42;100.00;91309.84;6225181;22;20021;-80
2023/10/26 01:46:11;;;;;;;6.38;2.10;;;;;;;8.41;100.00;91308.31;6303116;22;20018;-83
2023/10/26 01:48:37;;;;;;;4.40;2.10;;;;;;;8.40;100.00;91309.38;6249593;22;20066;-82
2023/10/26 01:51:04;;;;;;;3.45;1.90;;;;;;;8.42;100.00;91301.25;6276848;22;20046;-83
2023/10/26 01:53:29;;;;;;;4.68;2.33;;;;;;;8.44;100.00;91294.66;6279151;22;20057;-81
2023/10/26 01:55:55;;;;;;;4.95;2.17;;;;;;;8.47;100.00;91299.28;6278853;22;20367;-84
2023/10/26 01:58:21;;;;;;;4.45;2.20;;;;;;;8.50;100.00;91309.09;6279332;22;20381;-83
2023/10/26 02:00:47;;;;;;;8.73;2.25;;;;;;;8.52;100.00;91309.56;6276649;22;20037;-82
2023/10/26 02:03:12;;;;;;;5.68;2.50;;;;;;;8.58;100.00;91305.00;6276905;22;20373;-80
2023/10/26 02:05:38;;;;;;;5.88;2.47;;;;;;;8.58;100.00;91299.78;6276683;22;20007;-82
2023/10/26 02:08:03;;;;;;;5.15;2.15;;;;;;;8.60;100.00;91302.06;6277051;22;20348;-82
2023/10/26 02:10:29;;;;;;;7.10;2.45;;;;;;;8.60;100.00;91294.25;6303936;22;20015;-82
2023/10/26 02:12:56;;;;;;;3.88;2.10;;;;;;;8.67;100.00;91297.19;6275566;22;20007;-82
2023/10/26 02:15:22;;;;;;;8.90;2.50;;;;;;;8.63;100.00;91281.38;6277208;22;20065;-79
2023/10/26 02:17:48;;;;;;;3.90;2.22;;;;;;;8.70;100.00;91288.78;6249036;22;20380;-80
2023/10/26 02:20:13;;;;;;;6.78;2.40;;;;;;;8.72;100.00;91289.25;6276893;22;20106;-80
2023/10/26 02:22:39;;;;;;;6.40;2.55;;;;;;;8.79;100.00;91283.56;6275131;22;20015;-81
2023/10/26 02:25:05;;;;;;;5.63;3.05;;;;;;;8.75;100.00;91276.34;6275895;22;20072;-83
2023/10/26 02:27:32;;;;;;;15.25;2.55;;;;;;;8.75;100.00;91283.41;6275253;22;20011;-81
2023/10/26 02:29:57;;;;;;;4.93;2.47;;;;;;;8.75;100.00;91270.34;6303214;22;20018;-83
2023/10/26 02:32:24;;;;;;;4.70;2.20;;;;;;;8.78;100.00;91266.38;6249629;22;20015;-83
2023/10/26 02:34:49;;;;;;;7.85;2.20;;;;;;;8.79;100.00;91268.69;6303227;22;20596;-83
2023/10/26 02:37:17;;;;;;;12.55;2.60;;;;;;;8.80;100.00;91266.84;6275927;22;20275;-83
2023/10/26 02:39:43;;;;;;;8.65;2.30;;;;;;;8.79;100.00;91265.31;6302650;22;20015;-83
2023/10/26 02:42:09;;;;;;;5.65;2.28;;;;;;;8.86;100.00;91273.44;6275416;22;20007;-82
2023/10/26 02:44:35;;;;;;;8.15;2.55;;;;;;;8.83;100.00;91279.28;6303976;22;20069;-80
2023/10/26 02:47:01;;;;;;;5.15;2.20;;;;;;;8.85;100.00;91288.34;6224914;22;19999;-81
2023/10/26 02:49:27;;;;;;;4.38;2.40;;;;;;;8.85;100.00;91277.13;6276565;22;20022;-81
2023/10/26 02:51:53;;;;;;;4.35;2.22;;;;;;;8.81;100.00;91269.16;6275137;22;20003;-83
2023/10/26 02:54:19;;;;;;;9.05;2.00;;;;;;;8.84;100.00;91276.34;6302463;22;20019;-81
2023/10/26 02:56:45;;;;;;;9.90;2.28;;;;;;;8.84;100.00;91276.34;6250818;22;20014;-81
2023/10/26 02:59:10;;;;;;;3.90;2.10;;;;;;;8.84;100.00;91275.59;6303155;22;20023;-80
2023/10/26 03:01:36;;;;;;;7.05;2.88;;;;;;;8.83;100.00;91274.84;6275177;22;20229;-80
2023/10/26 03:04:02;;;;;;;6.50;2.42;;;;;;;8.81;100.00;91266.53;6302433;22;20371;-82
2023/10/26 03:06:28;;;;;;;6.28;2.05;;;;;;;8.83;100.00;91267.00;6274949;22;19999;-82
2023/10/26 03:08:54;;;;;;;7.53;2.38;;;;;;;8.81;100.00;91260.56;6275625;22;20081;-83
2023/10/26 03:11:20;;;;;;;4.35;2.10;;;;;;;8.78;100.00;91255.94;6274729;22;20007;-82
2023/10/26 03:13:46;;;;;;;5.65;2.00;;;;;;;8.78;100.00;91263.75;6274718;22;20371;-81
2023/10/26 03:16:11;;;;;;;5.80;2.03;;;;;;;8.76;100.00;91274.53;6250860;22;20007;-82
2023/10/26 03:18:37;;;;;;;22.63;2.78;;;;;;;8.74;100.00;91274.06;6303672;22;20061;-84
2023/10/26 03:21:04;;;;;;;4.15;2.17;;;;;;;8.72;100.00;91270.97;6250071;22;20003;-84
2023/10/26 03:23:29;;;;;;;6.03;2.60;;;;;;;8.71;100.00;91262.38;6275577;22;20014;-80
2023/10/26 03:25:55;;;;;;;6.88;2.58;;;;;;;8.72;100.00;91263.16;6302353;22;20060;-84
2023/10/26 03:28:21;;;;;;;5.60;2.50;;;;;;;8.70;100.00;91265.28;6275032;22;20019;-82
2023/10/26 03:30:47;;;;;;;16.27;2.83;;;;;;;8.67;100.00;91271.09;6303413;22;20022;-81
2023/10/26 03:33:13;;;;;;;4.93;2.17;;;;;;;8.63;100.00;91251.94;6274983;22;20456;-81
2023/10/26 03:35:38;;;;;;;7.60;2.40;;;;;;;8.65;100.00;91255.00;6302315;22;19999;-83
2023/10/26 03:38:04;;;;;;;9.10;2.20;;;;;;;8.65;100.00;91273.25;6302083;22;20008;-83
2023/10/26 03:40:32;;;;;;;8.20;2.15;;;;;;;8.65;100.00;91270.66;6276195;22;20397;-82
2023/10/26 03:42:57;;;;;;;4.10;2.20;;;;;;;8.65;100.00;91249.78;6250613;22;20035;-83
2023/10/26 03:45:26;;;;;;;10.85;2.47;;;;;;;8.65;100.00;91247.19;6275288;22;20003;-82
2023/10/26 03:47:52;;;;;;;10.32;2.40;;;;;;;8.65;100.00;91249.78;6250609;22;20011;-82
2023/10/26 03:50:19;;;;;;;5.13;2.30;;;;;;;8.65;100.00;91257.63;6276104;22;20026;-82
2023/10/26 03:52:45;;;;;;;5.25;2.03;;;;;;;8.65;100.00;91252.41;6277042;22;20023;-81
2023/10/26 03:55:10;;;;;;;7.88;2.38;;;;;;;8.64;100.00;91256.81;6305729;22;20236;-81
2023/10/26 03:57:36;;;;;;;4.22;2.13;;;;;;;8.64;100.00;91254.22;6254188;22;20019;-79
2023/10/26 04:00:05;;;;;;;5.88;2.30;;;;;;;8.63;100.00;91259.75;6258662;22;20023;-82
2023/10/26 04:02:40;;;;;;;14.68;10.63;;;;;;;8.59;100.00;91245.78;6304693;22;20018;-82
2023/10/26 04:05:06;;;;;;;8.43;3.33;;;;;;;8.63;100.00;91247.47;6305784;22;20015;-80
2023/10/26 04:07:33;;;;;;;5.45;2.40;;;;;;;8.67;100.00;91252.84;6279098;22;20429;-81
2023/10/26 04:09:59;;;;;;;7.22;2.47;;;;;;;8.69;100.00;91253.28;6305287;22;20011;-81
2023/10/26 04:12:24;;;;;;;7.68;2.70;;;;;;;8.73;100.00;91259.44;6303857;22;19995;-79
2023/10/26 04:14:51;;;;;;;5.47;2.28;;;;;;;8.74;100.00;91246.13;6251410;22;20017;-83
2023/10/26 04:17:17;;;;;;;6.75;2.58;;;;;;;8.68;100.00;91243.94;6304916;22;20014;-82
2023/10/26 04:19:42;;;;;;;5.72;2.20;;;;;;;8.75;100.00;91265.13;6251660;22;20452;-79
2023/10/26 04:22:08;;;;;;;6.22;2.70;;;;;;;8.72;100.00;91256.09;6305796;22;19999;-83
2023/10/26 04:24:34;;;;;;;11.00;3.70;;;;;;;8.73;100.00;91249.00;6251795;22;20340;-83
2023/10/26 04:27:00;;;;;;;10.07;3.20;;;;;;;8.75;100.00;91257.31;6248655;22;20352;-82
2023/10/26 04:29:25;;;;;;;8.85;3.00;;;;;;;8.80;100.00;91256.41;6248865;22;20015;-81
2023/10/26 04:31:51;;;;;;;9.70;3.10;;;;;;;8.81;100.00;91253.50;6247281;22;20011;-82
2023/10/26 04:34:17;;;;;;;5.78;2.60;;;;;;;8.82;100.00;91247.19;6275483;22;20015;-82
2023/10/26 04:36:42;;;;;;;5.00;2.40;;;;;;;8.78;100.00;91240.28;6302925;22;20004;-81
2023/10/26 04:39:09;;;;;;;12.27;2.67;;;;;;;8.73;100.00;91238.56;6256199;22;20008;-82
2023/10/26 04:41:38;;;;;;;9.00;2.40;;;;;;;8.73;100.00;91249.00;6254598;22;20014;-81
2023/10/26 04:44:07;;;;;;;5.80;2.72;;;;;;;8.84;100.00;91252.88;6253616;22;20392;-81
2023/10/26 04:46:33;;;;;;;5.22;2.65;;;;;;;8.80;100.00;91249.34;6279539;22;20075;-78
2023/10/26 04:48:59;;;;;;;6.95;2.40;;;;;;;8.73;100.00;91243.81;6228916;22;20054;-80
2023/10/26 04:51:24;;;;;;;6.65;2.90;;;;;;;8.70;100.00;91255.63;6280286;22;20003;-82
2023/10/26 04:53:50;;;;;;;5.07;2.67;;;;;;;8.63;100.00;91246.72;6278326;22;20015;-80
2023/10/26 04:56:16;;;;;;;9.75;3.05;;;;;;;8.61;100.00;91256.69;6277339;22;20160;-81
2023/10/26 04:58:43;;;;;;;8.27;3.20;;;;;;;8.62;100.00;91269.41;6279700;22;20011;-80
2023/10/26 05:01:09;;;;;;;14.20;3.40;;;;;;;8.63;100.00;91275.41;6278006;22;20388;-82
2023/10/26 05:03:36;;;;;;;5.75;3.03;;;;;;;8.64;100.00;91266.50;6253736;22;20482;-78
2023/10/26 05:06:02;;;;;;;9.57;2.90;;;;;;;8.64;100.00;91266.50;6306467;22;20003;-82
2023/10/26 05:08:27;;;;;;;6.60;2.72;;;;;;;8.67;100.00;91255.44;6281534;22;20480;-82
2023/10/26 05:10:54;;;;;;;5.07;2.20;;;;;;;8.66;100.00;91238.25;6309268;22;20129;-83
2023/10/26 05:13:20;;;;;;;5.93;2.53;;;;;;;8.70;100.00;91241.81;6281323;22;20040;-82
2023/10/26 05:15:45;;;;;;;6.57;2.58;;;;;;;8.71;100.00;91251.16;6306976;22;20003;-81
2023/10/26 05:18:11;;;;;;;7.93;2.80;;;;;;;8.71;100.00;91246.72;6307748;22;20023;-82
2023/10/26 05:20:38;;;;;;;5.18;2.42;;;;;;;8.67;100.00;91231.97;6281120;22;20003;-80
2023/10/26 05:23:05;;;;;;;10.00;2.60;;;;;;;8.71;100.00;91230.28;6308898;22;20038;-81
2023/10/26 05:25:31;;;;;;;6.03;2.40;;;;;;;8.68;100.00;91218.63;6282747;22;20032;-81
2023/10/26 05:27:57;;;;;;;5.68;2.38;;;;;;;8.69;100.00;91227.22;6227283;22;20026;-83
2023/10/26 05:30:23;;;;;;;8.05;2.72;;;;;;;8.68;100.00;91231.66;6276094;22;20012;-80
2023/10/26 05:32:49;;;;;;;6.53;2.10;;;;;;;8.68;100.00;91223.06;6248768;22;20077;-83
2023/10/26 05:35:14;;;;;;;4.60;2.30;;;;;;;8.67;100.00;91234.56;6275225;22;20038;-81
2023/10/26 05:37:40;;;;;;;9.18;2.42;;;;;;;8.66;100.00;91233.81;6273431;22;20331;-83
2023/10/26 05:40:08;;;;;;;6.95;2.53;;;;;;;8.64;100.00;91248.22;6246625;22;20348;-82
2023/10/26 05:42:35;;;;;;;9.15;2.60;;;;;;;8.63;100.00;91262.38;6274658;22;20539;-82
2023/10/26 05:45:00;;;;;;;8.25;2.38;;;;;;;8.62;100.00;91271.25;6272144;22;20051;-81
2023/10/26 05:47:26;;;;;;;6.65;2.13;;;;;;;8.63;100.00;91278.00;6248879;22;20008;-82
2023/10/26 05:49:52;;;;;;;4.13;2.10;;;;;;;8.63;100.00;91280.63;6273923;22;20003;-82
2023/10/26 05:52:18;;;;;;;4.80;2.35;;;;;;;8.64;100.00;91276.94;6273587;22;20015;-83
2023/10/26 05:54:43;;;;;;;6.50;2.20;;;;;;;8.64;100.00;91269.88;6271153;22;20028;-83
2023/10/26 05:57:09;;;;;;;6.95;2.50;;;;;;;8.63;100.00;91265.72;6275681;22;20003;-83
2023/10/26 05:59:34;;;;;;;4.88;2.22;;;;;;;8.69;100.00;91268.94;6250024;22;20016;-82
2023/10/26 06:02:02;;;;;;;4.38;2.25;;;;;;;8.69;100.00;91256.69;6278766;22;20003;-83
2023/10/26 06:04:28;;;;;;;12.70;2.13;;;;;;;8.70;100.00;91253.00;6247318;22;20018;-78
2023/10/26 06:06:53;;;;;;;4.00;2.20;;;;;;;8.71;100.00;91251.16;6272163;22;19991;-77
2023/10/26 06:09:19;;;;;;;8.07;2.45;;;;;;;8.75;100.00;91265.13;6276695;22;20012;-77
2023/10/26 06:11:45;;;;;;;6.55;2.60;;;;;;;8.77;100.00;91264.84;6252390;22;20043;-77
2023/10/26 06:14:10;;;;;;;7.43;2.15;;;;;;;8.78;100.00;91267.16;6271985;22;20011;-78
2023/10/26 06:16:37;;;;;;;7.80;2.40;;;;;;;8.79;100.00;91245.19;6283364;22;20043;-78
2023/10/26 06:19:02;;;;;;;3.70;2.20;;;;;;;8.81;100.00;91245.66;6284541;22;20099;-78
2023/10/26 06:21:29;;;;;;;7.50;2.67;;;;;;;8.84;100.00;91245.03;6285567;22;20000;-78
2023/10/26 06:23:54;;;;;;;4.30;2.20;;;;;;;8.89;100.00;91252.75;6287142;22;20095;-78
2023/10/26 06:26:20;;;;;;;9.48;2.70;;;;;;;8.92;100.00;91253.97;6287170;22;20000;-78
2023/10/26 06:28:48;;;;;;;6.88;2.55;;;;;;;8.95;100.00;91264.56;6283025;22;20023;-78
2023/10/26 06:31:15;;;;;;;6.32;2.47;;;;;;;9.07;100.00;91257.97;6274686;22;20035;-78
2023/10/26 06:33:42;;;;;;;11.48;2.95;;;;;;;9.24;100.00;91239.69;6273932;22;20007;-79
2023/10/26 06:36:09;;;;;;;4.25;1.95;;;;;;;9.44;100.00;91253.22;6281258;22;20051;-76
2023/10/26 06:38:37;;;;;;;4.93;2.13;;;;;;;9.70;100.00;91246.09;6280825;22;20026;-77
2023/10/26 06:41:03;;;;;;;5.35;2.00;;;;;;;10.00;100.00;91243.59;6282084;22;20030;-77
2023/10/26 06:43:29;;;;;;;6.30;2.20;;;;;;;10.60;100.00;91268.00;6283186;22;20012;-77
2023/10/26 06:45:54;;;;;;;6.50;2.42;;;;;;;11.10;100.00;91250.78;6283361;22;21037;-78
2023/10/26 06:48:20;;;;;;;5.90;2.10;;;;;;;11.60;100.00;91257.81;6256872;22;19999;-77
2023/10/26 06:50:49;;;;;;;5.90;2.10;;;;;;;12.14;100.00;91247.31;6282065;22;20084;-78
2023/10/26 06:53:14;;;;;;;9.15;2.42;;;;;;;12.81;100.00;91247.13;6283065;22;20061;-77
2023/10/26 06:55:41;;;;;;;5.10;2.10;;;;;;;13.34;100.00;91247.94;6285682;22;19999;-78
2023/10/26 06:58:06;;;;;;;5.20;2.08;;;;;;;13.81;100.00;91255.25;6284511;22;20058;-77
2023/10/26 07:00:34;;;;;;;4.05;1.98;;;;;;;14.14;100.00;91259.50;6279191;22;20016;-78
2023/10/26 07:03:00;;;;;;;5.97;2.00;;;;;;;14.46;100.00;91270.06;6256256;22;20049;-78
2023/10/26 07:05:26;;;;;;;3.83;1.90;;;;;;;14.31;100.00;91271.56;6256593;22;20004;-78
2023/10/26 07:07:52;;;;;;;5.20;2.00;;;;;;;14.02;100.00;91280.59;6286245;22;20436;-77
2023/10/26 07:10:19;;;;;;;6.10;2.10;;;;;;;13.89;100.00;91277.22;6284725;22;20024;-79
2023/10/26 07:12:46;;;;;;;13.00;2.22;;;;;;;14.15;100.00;91284.69;6285420;22;20033;-80
2023/10/26 07:15:11;;;;;;;8.55;2.60;;;;;;;14.46;100.00;91289.25;6258892;22;20015;-79
2023/10/26 07:17:38;;;;;;;5.88;2.15;;;;;;;14.76;100.00;91300.16;6287288;22;20027;-79
2023/10/26 07:20:05;;;;;;;4.15;1.98;;;;;;;15.30;100.00;91308.53;6287463;22;20023;-79
2023/10/26 07:22:35;;;;;;;8.52;2.55;;;;;;;15.43;100.00;91306.53;6286290;22;20022;-79
2023/10/26 07:25:02;;;;;;;4.40;2.10;;;;;;;15.33;100.00;91286.72;6286245;22;20016;-79
2023/10/26 07:27:28;;;;;;;9.02;2.50;;;;;;;15.07;100.00;91260.94;6295588;22;20015;-79
2023/10/26 07:29:54;;;;;;;4.93;2.33;;;;;;;14.69;100.00;91255.19;6239342;22;20015;-78
2023/10/26 07:32:20;;;;;;;6.53;2.90;;;;;;;14.01;100.00;91260.66;6291108;22;19995;-79
2023/10/26 07:34:46;;;;;;;5.82;3.20;;;;;;;13.46;100.00;91281.31;6290814;22;20098;-78
2023/10/26 07:37:12;;;;;;;7.47;3.33;;;;;;;13.07;100.00;91276.44;6290087;22;20080;-76
2023/10/26 07:39:37;;;;;;;18.92;3.70;;;;;;;13.03;100.00;91269.53;6319736;22;19999;-81
2023/10/26 07:42:04;;;;;;;9.98;3.10;;;;;;;12.89;100.00;91283.00;6294062;22;20015;-78
2023/10/26 07:44:33;;;;;;;8.20;2.42;;;;;;;12.83;100.00;91287.69;6320612;22;20011;-78
2023/10/26 07:46:59;;;;;;;8.43;2.28;;;;;;;12.68;100.00;91277.88;6266456;22;20041;-79
2023/10/26 07:49:25;;;;;;;7.82;2.28;;;;;;;12.56;100.00;91288.34;6265710;22;20015;-79
2023/10/26 07:51:50;;;;;;;3.70;2.13;;;;;;;12.45;100.00;91277.50;6288442;22;20019;-79
2023/10/26 07:54:17;;;;;;;5.10;2.22;;;;;;;12.42;100.00;91286.03;6316857;22;20369;-79
2023/10/26 07:56:43;;;;;;;4.22;2.10;;;;;;;12.32;100.00;91294.34;6317303;22;20022;-79
2023/10/26 07:59:09;;;;;;;5.65;2.10;;;;;;;12.24;100.00;91291.47;6290913;22;20011;-79
2023/10/26 08:01:36;;;;;;;6.60;3.08;;;;;;;12.28;100.00;91288.97;6285402;22;20011;-79
2023/10/26 08:04:01;;;;;;;10.75;5.00;;;;;;;12.11;100.00;91287.28;6314271;22;20011;-78
2023/10/26 08:06:27;;;;;;;9.20;4.60;;;;;;;11.76;100.00;91281.59;6312127;22;20019;-77
2023/10/26 08:08:53;;;;;;;11.35;5.10;;;;;;;11.27;100.00;91258.53;6315936;22;20040;-78
2023/10/26 08:11:19;;;;;;;9.57;4.60;;;;;;;11.19;100.00;91248.88;6291466;22;20114;-77
2023/10/26 08:13:45;;;;;;;8.45;3.53;;;;;;;11.19;100.00;91252.28;6288148;22;20043;-78
2023/10/26 08:16:11;;;;;;;8.50;3.60;;;;;;;11.19;100.00;91246.25;6281168;22;20004;-78
2023/10/26 08:18:38;;;;;;;13.30;4.97;;;;;;;10.95;100.00;91252.88;6277709;22;20018;-78
2023/10/26 08:21:05;;;;;;;12.57;5.60;;;;;;;10.69;100.00;91255.63;6252616;22;20008;-78
2023/10/26 08:23:32;;;;;;;8.82;4.80;;;;;;;10.73;100.00;91245.31;6256780;22;20027;-78
2023/10/26 08:26:09;;;;;;;13.52;5.30;;;;;;;10.70;100.00;91256.44;6279462;22;20411;-78
2023/10/26 08:28:36;;;;;;;10.65;5.22;;;;;;;10.65;100.00;91259.22;6306706;22;20018;-76
2023/10/26 08:31:02;;;;;;;10.20;4.95;;;;;;;10.77;100.00;91270.53;6260087;22;20015;-76
2023/10/26 08:33:31;;;;;;;9.30;4.70;;;;;;;10.94;100.00;91280.16;6307086;22;20015;-78
2023/10/26 08:36:00;;;;;;;9.93;4.53;;;;;;;11.11;100.00;91266.19;6308041;22;20109;-77
2023/10/26 08:38:26;;;;;;;7.00;4.07;;;;;;;11.27;100.00;91279.47;6280212;22;20011;-77
2023/10/26 08:40:54;;;;;;;7.10;3.40;;;;;;;11.36;100.00;91306.38;6277520;22;20106;-77
2023/10/26 08:43:22;;;;;;;9.50;2.80;;;;;;;11.45;100.00;91322.81;6279340;22;20294;-78
2023/10/26 08:45:48;;;;;;;4.43;2.45;;;;;;;11.54;100.00;91324.63;6306301;22;19999;-78
2023/10/26 08:48:18;;;;;;;8.65;2.50;;;;;;;11.56;100.00;91325.06;6317953;22;20011;-77
2023/10/26 08:50:46;;;;;;;5.75;2.15;;;;;;;11.65;100.00;91328.38;6285946;22;20011;-77
2023/10/26 08:53:13;;;;;;;5.55;2.10;;;;;;;11.70;100.00;91315.06;6314465;22;20007;-77
2023/10/26 08:55:42;;;;;;;7.43;2.53;;;;;;;11.81;100.00;91333.81;6314742;22;20012;-77
2023/10/26 08:58:09;;;;;;;4.93;2.13;;;;;;;11.80;100.00;91338.28;6314165;22;20031;-77
2023/10/26 09:00:41;;;;;;;6.43;2.10;;;;;;;11.80;100.00;91333.06;6288367;22;20011;-78
2023/10/26 09:03:10;;;;;;;8.90;3.58;;;;;;;11.83;100.00;91352.63;6289498;22;20019;-78
2023/10/26 09:05:55;;;;;;;10.50;3.67;;;;;;;11.62;100.00;91345.53;6289716;22;20064;-78
2023/10/26 09:08:23;;;;;;;6.57;3.30;;;;;;;11.49;100.00;91337.91;6317099;22;20091;-78
2023/10/26 09:10:51;;;;;;;8.60;3.92;;;;;;;11.55;100.00;91334.00;6284729;22;20010;-77
2023/10/26 09:13:24;;;;;;;8.45;3.65;;;;;;;11.44;100.00;91352.72;6304540;22;20015;-80
2023/10/26 09:15:51;;;;;;;6.38;3.83;;;;;;;11.44;100.00;91352.72;6252714;22;20612;-77
2023/10/26 09:18:17;;;;;;;7.97;3.95;;;;;;;11.51;100.00;91352.22;6250047;22;20417;-77
2023/10/26 09:21:01;;;;;;;10.32;4.05;;;;;;;11.58;100.00;91349.09;6289209;22;20015;-78
2023/10/26 09:23:27;;;;;;;12.63;3.70;;;;;;;11.45;100.00;91338.53;6317640;22;20011;-79
2023/10/26 09:26:04;;;;;;;9.38;3.67;;;;;;;11.41;100.00;91331.63;6287665;22;20023;-78
2023/10/26 09:28:50;;;;;;;8.82;3.58;;;;;;;11.31;100.00;91338.03;6275768;22;20023;-77
2023/10/26 09:31:17;;;;;;;8.05;3.90;;;;;;;11.14;100.00;91345.97;6281902;22;20016;-78
2023/10/26 09:33:47;;;;;;;9.18;3.95;;;;;;;11.13;100.00;91358.31;6259370;22;20107;-79
2023/10/26 09:36:18;;;;;;;11.48;4.22;;;;;;;11.01;100.00;91356.38;6284961;22;20015;-77
2023/10/26 09:38:44;;;;;;;7.95;4.60;;;;;;;11.00;100.00;91346.97;6286357;22;20011;-78
2023/10/26 09:41:16;;;;;;;8.45;3.90;;;;;;;11.22;100.00;91350.41;6285181;22;20012;-77
2023/10/26 09:43:42;;;;;;;9.27;5.50;;;;;;;11.20;100.00;91345.47;6285747;22;20042;-76
2023/10/26 09:46:09;;;;;;;10.95;4.75;;;;;;;11.16;100.00;91336.72;6284297;22;19999;-78
2023/10/26 09:48:35;;;;;;;8.25;4.13;;;;;;;11.12;100.00;91337.66;6259433;22;20022;-77
2023/10/26 09:51:03;;;;;;;12.52;5.45;;;;;;;10.98;100.00;91330.03;6285265;22;20437;-80
2023/10/26 09:53:40;;;;;;;12.98;5.30;;;;;;;11.09;100.00;91322.59;6284787;22;20016;-79
2023/10/26 09:56:08;;;;;;;7.22;4.30;;;;;;;11.32;100.00;91310.72;6281821;22;20348;-78
2023/10/26 09:58:41;;;;;;;11.02;4.30;;;;;;;11.24;100.00;91304.47;6272529;22;20038;-79
2023/10/26 10:01:37;;;;;;;7.78;3.20;;;;;;;11.18;100.00;91323.31;6274948;22;20023;-78
2023/10/26 10:04:04;;;;;;;7.95;3.33;;;;;;;11.26;100.00;91306.78;6273620;22;20012;-79
2023/10/26 10:06:49;;;;;;;7.22;3.00;;;;;;;11.52;100.00;91324.91;6283118;22;19996;-78
2023/10/26 10:09:18;;;;;;;13.60;3.28;;;;;;;11.61;100.00;91335.34;6286656;22;20393;-78
2023/10/26 10:11:44;;;;;;;7.78;3.30;;;;;;;11.70;100.00;91353.63;6284983;22;20046;-78
2023/10/26 10:14:51;;;;;;;10.57;3.58;;;;;;;11.68;100.00;91348.69;6282067;22;20027;-77
2023/10/26 10:17:21;;;;;;;5.28;2.25;;;;;;;11.73;100.00;91340.66;6266437;22;20464;-78
2023/10/26 10:20:08;;;;;;;8.80;2.50;;;;;;;11.72;100.00;91339.13;6282695;22;20099;-78
2023/10/26 10:22:37;;;;;;;9.60;2.30;;;;;;;11.68;100.00;91335.59;6285438;22;20341;-77
2023/10/26 10:25:03;;;;;;;7.70;2.70;;;;;;;11.70;100.00;91346.53;6284244;22;19995;-79
2023/10/26 10:27:29;;;;;;;5.45;2.60;;;;;;;11.71;100.00;91327.13;6278406;22;20746;-78
2023/10/26 10:29:59;;;;;;;6.95;2.55;;;;;;;11.84;100.00;91326.09;6281937;22;20034;-80
2023/10/26 10:32:47;;;;;;;12.52;3.10;;;;;;;11.98;100.00;91330.28;6280751;22;20349;-77
2023/10/26 10:35:27;;;;;;;6.40;2.72;;;;;;;12.10;100.00;91312.00;6257992;22;20023;-76
2023/10/26 10:38:15;;;;;;;31.20;13.35;;;;;;;12.21;100.00;91297.38;6279744;22;20337;-77
2023/10/26 10:41:10;;;;;;;11.30;3.90;;;;;;;12.19;100.00;91293.53;6280273;22;20094;-79
2023/10/26 10:43:43;;;;;;;23.20;13.15;;;;;;;12.12;100.00;91312.44;6281269;22;20011;-77
2023/10/26 10:46:18;;;;;;;13.57;5.78;;;;;;;12.15;100.00;91317.03;6277859;22;20039;-77
2023/10/26 10:49:06;;;;;;;32.67;15.75;;;;;;;12.24;100.00;91325.56;6280673;22;20396;-80
2023/10/26 10:51:35;;;;;;;13.30;5.03;;;;;;;12.22;100.00;91325.13;6282969;22;20007;-75
2023/10/26 10:54:03;;;;;;;5.63;2.95;;;;;;;12.25;100.00;91321.13;6279264;22;19999;-76
2023/10/26 10:56:35;;;;;;;12.80;5.32;;;;;;;12.22;100.00;91319.88;6276369;22;19999;-78
2023/10/26 10:59:01;;;;;;;19.70;10.15;;;;;;;12.19;100.00;91315.28;6288707;22;20065;-76
2023/10/26 11:01:27;;;;;;;13.30;6.72;;;;;;;12.22;100.00;91296.28;6286500;22;20067;-76
2023/10/26 11:04:04;;;;;;;8.45;4.13;;;;;;;12.15;100.00;91282.16;6286321;22;20016;-77
2023/10/26 11:06:31;;;;;;;9.10;4.40;;;;;;;12.05;100.00;91283.34;6288015;22;20022;-78
2023/10/26 11:08:59;;;;;;;8.07;3.15;;;;;;;12.14;100.00;91294.53;6290804;22;20003;-78
2023/10/26 11:11:27;;;;;;;12.35;5.38;;;;;;;11.88;100.00;91287.66;6291045;22;20038;-75
2023/10/26 11:14:09;;;;;;;7.80;4.20;;;;;;;11.74;100.00;91273.28;6290380;22;20003;-75
2023/10/26 11:16:38;;;;;;;8.18;4.05;;;;;;;11.72;100.00;91263.09;6289679;22;20008;-77
2023/10/26 11:19:04;;;;;;;11.05;4.25;;;;;;;11.67;100.00;91265.94;6287088;22;20010;-77
2023/10/26 11:21:30;;;;;;;18.05;10.32;;;;;;;11.64;100.00;91279.66;6288184;22;20011;-77
2023/10/26 11:23:55;;;;;;;13.85;6.72;;;;;;;11.58;100.00;91280.97;6288737;22;20062;-77
2023/10/26 11:26:21;;;;;;;18.08;8.98;;;;;;;11.55;100.00;91276.34;6286904;22;20023;-75
2023/10/26 11:28:47;;;;;;;6.82;3.42;;;;;;;11.58;100.00;91283.59;6260440;22;20019;-76
2023/10/26 11:31:12;;;;;;;6.72;3.55;;;;;;;11.67;100.00;91279.78;6287870;22;20020;-76